createdAt,value
2022-09-18T00:00:47.879Z,9.19
2022-09-18T00:03:16.152Z,9.12
2022-09-18T00:05:43.393Z,9.17
2022-09-18T00:08:10.621Z,9.33
2022-09-18T00:10:45.660Z,9.14
2022-09-18T00:13:13.835Z,9.16
2022-09-18T00:15:41.148Z,8.91
2022-09-18T00:18:09.089Z,9.17
2022-09-18T00:20:37.278Z,9.24
2022-09-18T00:23:04.029Z,9.06
2022-09-18T00:25:32.138Z,9.15
2022-09-18T00:27:58.804Z,9.03
2022-09-18T00:30:25.435Z,8.92
2022-09-18T00:32:52.047Z,9.09
2022-09-18T00:35:18.614Z,9.11
2022-09-18T00:37:45.209Z,9.19
2022-09-18T00:40:11.814Z,9.13
2022-09-18T00:42:38.362Z,9.13
2022-09-18T00:45:05.587Z,9.06
2022-09-18T00:47:45.846Z,9.22
2022-09-18T00:50:25.983Z,9.07
2022-09-18T00:52:58.283Z,9.07
2022-09-18T00:55:33.114Z,9.02
2022-09-18T00:58:02.903Z,9.19
2022-09-18T01:00:29.854Z,9.02
2022-09-18T01:03:01.496Z,9.09
2022-09-18T01:05:37.256Z,9.09
2022-09-18T01:09:04.506Z,8.97
2022-09-18T01:11:42.704Z,8.98
2022-09-18T01:14:36.704Z,9.21
2022-09-18T01:17:13.454Z,9.28
2022-09-18T01:19:52.613Z,9.33
2022-09-18T01:22:49.566Z,9.24
2022-09-18T01:25:18.335Z,9.14
2022-09-18T01:27:55.721Z,9.29
2022-09-18T01:30:22.247Z,9.18
2022-09-18T01:32:58.756Z,9.28
2022-09-18T01:35:48.304Z,9.08
2022-09-18T01:38:28.961Z,9.00
2022-09-18T01:41:04.970Z,9.13
2022-09-18T01:43:32.929Z,9.00
2022-09-18T01:46:04.571Z,9.04
2022-09-18T01:48:36.712Z,9.12
2022-09-18T01:51:20.632Z,8.98
2022-09-18T01:54:04.949Z,8.96
2022-09-18T01:56:39.286Z,9.26
2022-09-18T01:59:18.648Z,8.88
2022-09-18T02:01:48.691Z,8.91
2022-09-18T02:04:22.302Z,8.91
2022-09-18T02:07:19.429Z,8.89
2022-09-18T02:09:46.010Z,9.03
2022-09-18T02:12:18.153Z,8.96
2022-09-18T02:14:52.710Z,9.14
2022-09-18T02:17:29.483Z,9.06
2022-09-18T02:20:11.031Z,8.98
2022-09-18T02:22:39.309Z,9.25
2022-09-18T02:25:07.918Z,9.11
2022-09-18T02:27:38.117Z,8.94
2022-09-18T02:30:06.614Z,9.18
2022-09-18T02:32:36.020Z,9.14
2022-09-18T02:35:02.747Z,8.98
2022-09-18T02:37:48.235Z,8.96
2022-09-18T02:40:33.636Z,8.95
2022-09-18T02:43:02.963Z,9.05
2022-09-18T02:45:52.057Z,9.18
2022-09-18T02:48:24.444Z,9.05
2022-09-18T02:51:07.734Z,9.01
2022-09-18T02:53:54.561Z,9.07
2022-09-18T02:56:25.081Z,9.04
2022-09-18T02:58:57.640Z,9.18
2022-09-18T03:01:26.875Z,9.07
2022-09-18T03:03:54.451Z,9.10
2022-09-18T03:06:21.096Z,9.15
2022-09-18T03:08:47.681Z,9.14
2022-09-18T03:11:14.259Z,9.43
2022-09-18T03:13:40.899Z,9.27
2022-09-18T03:16:07.584Z,9.29
2022-09-18T03:18:34.193Z,9.25
2022-09-18T03:21:00.725Z,9.23
2022-09-18T03:23:27.307Z,9.27
2022-09-18T03:25:53.866Z,9.34
2022-09-18T03:28:20.505Z,9.37
2022-09-18T03:30:47.081Z,9.01
2022-09-18T03:33:13.902Z,9.15
2022-09-18T03:35:40.559Z,9.21
2022-09-18T03:38:07.266Z,9.38
2022-09-18T03:40:33.971Z,9.16
2022-09-18T03:43:00.574Z,9.35
2022-09-18T03:45:27.114Z,9.16
2022-09-18T03:47:53.689Z,9.13
2022-09-18T03:50:20.319Z,9.10
2022-09-18T03:52:51.332Z,9.24
2022-09-18T03:55:22.630Z,9.11
2022-09-18T03:57:50.501Z,9.14
2022-09-18T04:00:17.357Z,9.28
2022-09-18T04:02:44.176Z,9.11
2022-09-18T04:05:11.036Z,9.15
2022-09-18T04:07:37.609Z,9.13
2022-09-18T04:10:04.562Z,9.19
2022-09-18T04:12:31.105Z,9.22
2022-09-18T04:14:57.726Z,9.11
2022-09-18T04:17:24.370Z,9.11
2022-09-18T04:19:53.597Z,9.29
2022-09-18T04:22:21.855Z,9.02
2022-09-18T04:24:50.511Z,9.11
2022-09-18T04:27:17.557Z,9.12
2022-09-18T04:29:44.162Z,9.15
2022-09-18T04:32:10.890Z,9.39
2022-09-18T04:34:37.432Z,9.24
2022-09-18T04:37:09.424Z,9.03
2022-09-18T04:39:36.932Z,9.25
2022-09-18T04:42:03.918Z,9.08
2022-09-18T04:44:30.558Z,9.17
2022-09-18T04:46:57.540Z,8.90
2022-09-18T04:49:24.360Z,9.03
2022-09-18T04:51:51.127Z,8.96
2022-09-18T04:54:17.712Z,9.02
2022-09-18T04:56:44.282Z,9.10
2022-09-18T04:59:10.891Z,9.08
2022-09-18T05:01:37.555Z,9.22
2022-09-18T05:04:04.265Z,9.24
2022-09-18T05:06:30.890Z,9.29
2022-09-18T05:08:58.473Z,9.11
2022-09-18T05:11:25.190Z,9.17
2022-09-18T05:13:56.620Z,9.19
2022-09-18T05:16:24.402Z,9.32
2022-09-18T05:18:51.993Z,9.22
2022-09-18T05:21:19.138Z,9.21
2022-09-18T05:23:47.074Z,9.19
2022-09-18T05:26:14.356Z,9.26
2022-09-18T05:28:41.164Z,9.49
2022-09-18T05:31:08.027Z,9.50
2022-09-18T05:33:34.762Z,9.33
2022-09-18T05:36:01.714Z,9.47
2022-09-18T05:38:28.242Z,9.29
2022-09-18T05:40:54.877Z,9.40
2022-09-18T05:43:21.393Z,9.35
2022-09-18T05:45:47.986Z,9.42
2022-09-18T05:48:14.550Z,9.36
2022-09-18T05:50:42.689Z,9.44
2022-09-18T05:53:15.353Z,9.32
2022-09-18T05:55:42.379Z,9.32
2022-09-18T05:58:15.106Z,9.42
2022-09-18T06:00:44.698Z,9.52
2022-09-18T06:03:13.671Z,9.57
2022-09-18T06:05:41.161Z,9.38
2022-09-18T06:08:11.067Z,9.65
2022-09-18T06:10:40.327Z,9.44
2022-09-18T06:13:13.174Z,9.62
2022-09-18T06:15:40.100Z,9.68
2022-09-18T06:18:09.229Z,9.40
2022-09-18T06:20:36.334Z,9.66
2022-09-18T06:23:03.560Z,9.62
2022-09-18T06:25:32.602Z,9.64
2022-09-18T06:28:00.612Z,9.71
2022-09-18T06:30:29.919Z,10.03
2022-09-18T06:33:00.942Z,9.84
2022-09-18T06:35:27.508Z,9.95
2022-09-18T06:37:54.072Z,9.76
2022-09-18T06:40:20.785Z,9.80
2022-09-18T06:42:48.308Z,10.18
2022-09-18T06:45:14.897Z,10.19
2022-09-18T06:47:41.438Z,10.35
2022-09-18T06:50:09.000Z,10.17
2022-09-18T06:52:35.940Z,10.04
2022-09-18T06:55:02.512Z,10.21
2022-09-18T06:57:29.070Z,10.05
2022-09-18T06:59:58.534Z,10.16
2022-09-18T07:02:25.249Z,10.18
2022-09-18T07:04:52.904Z,10.29
2022-09-18T07:07:19.795Z,10.01
2022-09-18T07:09:46.336Z,10.06
2022-09-18T07:12:12.983Z,10.27
2022-09-18T07:14:39.522Z,10.24
2022-09-18T07:17:17.635Z,10.35
2022-09-18T07:19:45.198Z,10.26
2022-09-18T07:22:11.778Z,10.23
2022-09-18T07:24:38.309Z,10.07
2022-09-18T07:27:04.880Z,9.88
2022-09-18T07:29:32.804Z,10.15
2022-09-18T07:31:59.882Z,10.02
2022-09-18T07:34:26.584Z,10.15
2022-09-18T07:36:53.163Z,10.15
2022-09-18T07:39:19.683Z,10.13
2022-09-18T07:41:46.324Z,10.04
2022-09-18T07:44:12.867Z,9.91
2022-09-18T07:46:39.641Z,10.14
2022-09-18T07:49:06.287Z,10.11
2022-09-18T07:51:32.840Z,10.48
2022-09-18T07:53:59.403Z,10.30
2022-09-18T07:56:25.955Z,9.98
2022-09-18T07:58:52.593Z,10.11
2022-09-18T08:01:19.297Z,10.10
2022-09-18T08:03:46.210Z,9.98
2022-09-18T08:06:13.291Z,9.98
2022-09-18T08:08:40.046Z,9.93
2022-09-18T08:11:06.618Z,9.90
2022-09-18T08:13:33.330Z,10.05
2022-09-18T08:15:59.990Z,10.11
2022-09-18T08:18:26.705Z,10.04
2022-09-18T08:20:56.973Z,9.94
2022-09-18T08:23:23.691Z,9.78
2022-09-18T08:25:50.374Z,9.89
2022-09-18T08:28:17.145Z,9.95
2022-09-18T08:30:43.769Z,10.00
2022-09-18T08:33:11.164Z,10.17
2022-09-18T08:35:37.961Z,10.22
2022-09-18T08:38:04.651Z,10.20
2022-09-18T08:40:50.160Z,10.19
2022-09-18T08:43:16.756Z,10.16
2022-09-18T08:46:08.891Z,10.47
2022-09-18T08:48:40.338Z,10.30
2022-09-18T08:51:37.680Z,10.26
2022-09-18T08:54:39.574Z,10.42
2022-09-18T08:57:16.286Z,10.55
2022-09-18T08:59:48.540Z,10.63
2022-09-18T09:02:55.469Z,10.52
2022-09-18T09:05:28.244Z,10.58
2022-09-18T09:08:19.645Z,10.52
2022-09-18T09:10:51.957Z,10.70
2022-09-18T09:13:36.505Z,10.73
2022-09-18T09:16:14.214Z,10.89
2022-09-18T09:19:09.662Z,10.76
2022-09-18T09:21:49.787Z,10.87
2022-09-18T09:24:48.198Z,10.85
2022-09-18T09:27:27.059Z,10.97
2022-09-18T09:30:03.809Z,10.84
2022-09-18T09:32:40.865Z,10.93
2022-09-18T09:35:16.632Z,10.95
2022-09-18T09:37:46.322Z,11.02
2022-09-18T09:40:27.788Z,10.96
2022-09-18T09:43:03.489Z,10.98
2022-09-18T09:45:44.306Z,11.03
2022-09-18T09:48:21.526Z,11.10
2022-09-18T09:50:58.389Z,11.24
2022-09-18T09:53:26.873Z,11.12
2022-09-18T09:56:19.313Z,11.21
2022-09-18T09:58:56.262Z,11.19
2022-09-18T10:01:49.094Z,11.20
2022-09-18T10:04:24.771Z,11.55
2022-09-18T10:06:58.974Z,11.53
2022-09-18T10:09:45.376Z,11.49
2022-09-18T10:12:33.627Z,11.26
2022-09-18T10:15:26.203Z,11.08
2022-09-18T10:17:58.930Z,11.29
2022-09-18T10:20:29.480Z,11.69
2022-09-18T10:23:00.405Z,11.37
2022-09-18T10:25:33.669Z,11.33
2022-09-18T10:28:00.257Z,11.41
2022-09-18T10:30:26.829Z,11.19
2022-09-18T10:32:53.560Z,11.21
2022-09-18T10:35:28.857Z,11.18
2022-09-18T10:37:55.461Z,11.59
2022-09-18T10:40:31.552Z,11.42
2022-09-18T10:42:59.650Z,11.86
2022-09-18T10:45:29.181Z,11.86
2022-09-18T10:48:17.597Z,11.45
2022-09-18T10:51:01.425Z,11.61
2022-09-18T10:53:31.343Z,11.97
2022-09-18T10:56:06.979Z,12.04
2022-09-18T10:58:34.350Z,11.90
2022-09-18T11:01:06.442Z,12.10
2022-09-18T11:04:05.712Z,12.26
2022-09-18T11:06:35.576Z,11.84
2022-09-18T11:09:07.738Z,11.92
2022-09-18T11:11:37.394Z,11.80
2022-09-18T11:14:06.547Z,11.99
2022-09-18T11:16:45.633Z,12.02
2022-09-18T11:19:12.887Z,12.36
2022-09-18T11:22:03.093Z,12.49
2022-09-18T11:24:33.571Z,12.67
2022-09-18T11:27:20.520Z,12.37
2022-09-18T11:29:47.103Z,12.64
2022-09-18T11:32:27.815Z,12.50
2022-09-18T11:35:02.049Z,12.50
2022-09-18T11:37:33.544Z,12.20
2022-09-18T11:40:08.074Z,11.95
2022-09-18T11:42:46.455Z,11.85
2022-09-18T11:45:40.318Z,11.88
2022-09-18T11:48:32.449Z,12.08
2022-09-18T11:51:14.511Z,12.28
2022-09-18T11:53:53.764Z,12.28
2022-09-18T11:56:50.179Z,12.29
2022-09-18T11:59:34.270Z,12.24
2022-09-18T12:02:17.937Z,12.34
2022-09-18T12:04:49.642Z,12.59
2022-09-18T12:07:40.517Z,12.79
2022-09-18T12:10:45.168Z,12.98
2022-09-18T12:13:33.628Z,12.98
2022-09-18T12:16:11.251Z,13.09
2022-09-18T12:18:59.314Z,12.68
2022-09-18T12:21:45.256Z,12.89
2022-09-18T12:24:14.808Z,12.67
2022-09-18T12:26:52.604Z,12.69
2022-09-18T12:29:31.267Z,12.53
2022-09-18T12:32:06.734Z,12.46
2022-09-18T12:35:04.078Z,12.54
2022-09-18T12:37:49.287Z,12.69
2022-09-18T12:40:44.370Z,12.27
2022-09-18T12:43:42.590Z,12.43
2022-09-18T12:46:15.300Z,12.49
2022-09-18T12:48:57.937Z,12.18
2022-09-18T12:52:09.565Z,12.22
2022-09-18T12:54:42.137Z,12.21
2022-09-18T12:57:44.290Z,12.32
2022-09-18T13:00:14.607Z,12.01
2022-09-18T13:03:11.883Z,11.85
2022-09-18T13:05:43.801Z,12.04
2022-09-18T13:08:18.137Z,12.07
2022-09-18T13:10:47.479Z,11.53
2022-09-18T13:13:14.087Z,12.01
2022-09-18T13:15:46.533Z,11.58
2022-09-18T13:18:32.247Z,11.46
2022-09-18T13:21:02.948Z,11.65
2022-09-18T13:23:41.680Z,11.52
2022-09-18T13:26:15.229Z,11.57
2022-09-18T13:28:43.621Z,11.39
2022-09-18T13:31:27.808Z,11.37
2022-09-18T13:33:58.051Z,11.53
2022-09-18T13:36:32.440Z,11.53
2022-09-18T13:39:03.747Z,11.79
2022-09-18T13:41:42.505Z,11.42
2022-09-18T13:44:18.241Z,11.47
2022-09-18T13:46:45.399Z,11.72
2022-09-18T13:49:42.250Z,11.45
2022-09-18T13:52:27.592Z,11.41
2022-09-18T13:55:20.196Z,11.34
2022-09-18T13:57:46.758Z,11.27
2022-09-18T14:00:19.149Z,11.30
2022-09-18T14:02:47.042Z,11.24
2022-09-18T14:05:33.275Z,11.48
2022-09-18T14:08:24.409Z,11.31
2022-09-18T14:11:14.564Z,11.46
2022-09-18T14:13:58.974Z,11.33
2022-09-18T14:16:29.757Z,11.58
2022-09-18T14:19:22.503Z,11.43
2022-09-18T14:21:49.166Z,11.06
2022-09-18T14:24:23.304Z,11.16
2022-09-18T14:26:55.733Z,11.31
2022-09-18T14:29:26.162Z,11.65
2022-09-18T14:31:58.490Z,11.73
2022-09-18T14:34:40.585Z,11.65
2022-09-18T14:37:21.694Z,11.57
2022-09-18T14:39:48.278Z,11.72
2022-09-18T14:42:32.806Z,11.58
2022-09-18T14:45:11.088Z,11.49
2022-09-18T14:47:38.596Z,11.33
2022-09-18T14:50:26.865Z,11.31
2022-09-18T14:52:54.611Z,11.26
2022-09-18T14:55:33.836Z,11.56
2022-09-18T14:58:08.419Z,11.15
2022-09-18T15:00:37.494Z,11.24
2022-09-18T15:03:09.062Z,11.41
2022-09-18T15:05:36.736Z,11.34
2022-09-18T15:08:07.976Z,11.47
2022-09-18T15:10:38.728Z,11.21
2022-09-18T15:13:08.422Z,11.26
2022-09-18T15:15:39.476Z,11.31
2022-09-18T15:18:29.659Z,11.19
2022-09-18T15:20:59.011Z,11.33
2022-09-18T15:23:38.364Z,11.22
2022-09-18T15:26:08.781Z,11.18
2022-09-18T15:28:38.092Z,11.10
2022-09-18T15:31:08.916Z,11.20
2022-09-18T15:33:38.355Z,11.11
2022-09-18T15:36:05.704Z,10.99
2022-09-18T15:38:40.463Z,11.26
2022-09-18T15:41:31.301Z,11.00
2022-09-18T15:43:57.942Z,11.06
2022-09-18T15:46:33.028Z,11.15
2022-09-18T15:49:23.543Z,10.96
2022-09-18T15:51:50.192Z,10.93
2022-09-18T15:54:20.084Z,11.07
2022-09-18T15:56:53.132Z,10.86
2022-09-18T15:59:35.639Z,10.93
2022-09-18T16:02:21.376Z,10.74
2022-09-18T16:04:48.236Z,10.86
2022-09-18T16:07:25.543Z,10.45
2022-09-18T16:09:52.166Z,10.72
2022-09-18T16:12:29.340Z,10.44
2022-09-18T16:15:17.447Z,10.76
2022-09-18T16:17:43.984Z,10.63
2022-09-18T16:20:21.701Z,10.51
2022-09-18T16:22:50.095Z,10.67
2022-09-18T16:25:28.852Z,10.57
2022-09-18T16:27:58.018Z,10.22
2022-09-18T16:30:25.980Z,10.48
2022-09-18T16:32:59.886Z,10.72
2022-09-18T16:35:26.443Z,10.70
2022-09-18T16:37:55.172Z,10.58
2022-09-18T16:40:27.607Z,10.60
2022-09-18T16:42:58.318Z,10.61
2022-09-18T16:45:27.114Z,10.63
2022-09-18T16:48:00.337Z,10.44
2022-09-18T16:50:27.516Z,10.33
2022-09-18T16:52:55.274Z,10.30
2022-09-18T16:55:23.627Z,10.24
2022-09-18T16:57:52.270Z,10.21
2022-09-18T17:00:18.999Z,10.29
2022-09-18T17:02:45.621Z,10.32
2022-09-18T17:05:12.282Z,10.42
2022-09-18T17:07:40.542Z,10.17
2022-09-18T17:10:07.591Z,10.12
2022-09-18T17:12:34.349Z,10.17
2022-09-18T17:15:01.073Z,10.17
2022-09-18T17:17:29.720Z,10.30
2022-09-18T17:19:56.317Z,10.17
2022-09-18T17:22:23.269Z,10.35
2022-09-18T17:24:51.382Z,10.17
2022-09-18T17:27:18.729Z,10.07
2022-09-18T17:29:45.329Z,10.14
2022-09-18T17:32:12.612Z,10.14
2022-09-18T17:34:39.326Z,10.13
2022-09-18T17:37:05.852Z,10.17
2022-09-18T17:39:32.898Z,10.05
2022-09-18T17:41:59.630Z,10.11
2022-09-18T17:44:28.011Z,10.30
2022-09-18T17:46:54.801Z,10.15
2022-09-18T17:49:21.727Z,10.16
2022-09-18T17:51:49.291Z,10.04
2022-09-18T17:54:16.990Z,9.97
2022-09-18T17:56:44.048Z,10.11
2022-09-18T17:59:11.425Z,9.97
2022-09-18T18:01:43.086Z,9.97
2022-09-18T18:04:09.734Z,9.98
2022-09-18T18:06:37.059Z,10.04
2022-09-18T18:09:06.329Z,10.12
2022-09-18T18:11:33.295Z,9.99
2022-09-18T18:14:00.387Z,10.06
2022-09-18T18:16:31.853Z,10.15
2022-09-18T18:19:01.334Z,9.84
2022-09-18T18:21:28.977Z,9.83
2022-09-18T18:24:00.350Z,9.92
2022-09-18T18:26:31.122Z,9.90
2022-09-18T18:28:58.302Z,9.85
2022-09-18T18:31:25.910Z,9.80
2022-09-18T18:33:54.783Z,9.82
2022-09-18T18:36:27.178Z,10.02
2022-09-18T18:38:56.344Z,9.68
2022-09-18T18:41:24.797Z,9.80
2022-09-18T18:43:56.744Z,9.84
2022-09-18T18:46:25.707Z,9.92
2022-09-18T18:49:00.531Z,10.02
2022-09-18T18:51:29.105Z,9.90
2022-09-18T18:53:56.471Z,9.88
2022-09-18T18:56:23.606Z,9.95
2022-09-18T18:58:56.120Z,9.88
2022-09-18T19:01:23.279Z,9.95
2022-09-18T19:03:52.530Z,9.98
2022-09-18T19:06:20.424Z,9.86
2022-09-18T19:08:47.476Z,9.75
2022-09-18T19:11:18.828Z,9.71
2022-09-18T19:13:53.020Z,9.83
2022-09-18T19:16:20.385Z,9.93
2022-09-18T19:18:52.778Z,9.61
2022-09-18T19:21:20.940Z,9.75
2022-09-18T19:23:55.841Z,9.78
2022-09-18T19:26:24.276Z,9.96
2022-09-18T19:28:53.365Z,9.68
2022-09-18T19:31:21.149Z,9.53
2022-09-18T19:33:52.664Z,9.77
2022-09-18T19:36:24.440Z,9.85
2022-09-18T19:39:00.118Z,9.81
2022-09-18T19:41:41.217Z,9.79
2022-09-18T19:44:35.497Z,9.54
2022-09-18T19:47:23.592Z,9.57
2022-09-18T19:49:51.506Z,9.51
2022-09-18T19:52:21.319Z,9.55
2022-09-18T19:54:49.748Z,9.35
2022-09-18T19:57:17.813Z,9.33
2022-09-18T19:59:45.025Z,9.14
2022-09-18T20:02:17.957Z,9.37
2022-09-18T20:04:44.770Z,9.23
2022-09-18T20:07:12.553Z,9.27
2022-09-18T20:09:40.334Z,9.33
2022-09-18T20:12:09.136Z,9.42
2022-09-18T20:14:35.797Z,9.23
2022-09-18T20:17:02.874Z,9.13
2022-09-18T20:19:29.396Z,8.91
2022-09-18T20:21:56.240Z,8.80
2022-09-18T20:24:22.893Z,8.77
2022-09-18T20:26:51.262Z,8.77
2022-09-18T20:29:17.965Z,8.78
2022-09-18T20:31:46.036Z,8.76
2022-09-18T20:34:13.978Z,8.98
2022-09-18T20:36:40.537Z,8.79
2022-09-18T20:39:07.513Z,8.83
2022-09-18T20:41:34.352Z,8.79
2022-09-18T20:44:04.896Z,8.72
2022-09-18T20:46:36.960Z,8.78
2022-09-18T20:49:04.775Z,8.81
2022-09-18T20:51:34.889Z,8.60
2022-09-18T20:54:03.122Z,8.77
2022-09-18T20:56:36.206Z,8.66
2022-09-18T20:59:07.591Z,8.58
2022-09-18T21:01:38.219Z,8.68
2022-09-18T21:04:05.032Z,8.56
2022-09-18T21:06:33.528Z,8.55
2022-09-18T21:09:05.171Z,8.57
2022-09-18T21:11:35.268Z,8.67
2022-09-18T21:14:03.762Z,8.93
2022-09-18T21:16:34.101Z,8.69
2022-09-18T21:19:02.073Z,8.88
2022-09-18T21:21:32.020Z,8.57
2022-09-18T21:24:01.516Z,8.80
2022-09-18T21:26:44.774Z,8.76
2022-09-18T21:29:13.024Z,8.57
2022-09-18T21:31:44.004Z,8.56
2022-09-18T21:34:31.367Z,8.45
2022-09-18T21:37:01.677Z,8.42
2022-09-18T21:39:29.659Z,8.51
2022-09-18T21:41:58.272Z,8.65
2022-09-18T21:44:29.576Z,8.64
2022-09-18T21:46:59.982Z,8.44
2022-09-18T21:49:27.747Z,8.34
2022-09-18T21:51:55.987Z,8.64
2022-09-18T21:54:23.764Z,8.20
2022-09-18T21:56:54.127Z,8.16
2022-09-18T21:59:27.364Z,8.11
2022-09-18T22:01:56.810Z,8.20
2022-09-18T22:04:28.631Z,8.03
2022-09-18T22:06:57.779Z,8.40
2022-09-18T22:09:27.499Z,8.24
2022-09-18T22:11:55.536Z,8.07
2022-09-18T22:14:25.074Z,8.09
2022-09-18T22:16:53.770Z,8.30
2022-09-18T22:19:21.057Z,8.23
2022-09-18T22:21:50.020Z,8.09
2022-09-18T22:24:19.262Z,8.10
2022-09-18T22:26:51.268Z,8.12
2022-09-18T22:29:21.537Z,8.26
2022-09-18T22:31:49.349Z,8.28
2022-09-18T22:34:18.671Z,8.24
2022-09-18T22:36:46.521Z,8.13
2022-09-18T22:39:14.536Z,7.92
2022-09-18T22:41:41.317Z,8.02
2022-09-18T22:44:08.331Z,7.83
2022-09-18T22:46:37.808Z,7.93
2022-09-18T22:49:06.326Z,8.03
2022-09-18T22:51:32.960Z,8.14
2022-09-18T22:54:07.729Z,8.00
2022-09-18T22:56:40.649Z,7.94
2022-09-18T22:59:07.710Z,8.01
2022-09-18T23:01:37.445Z,7.96
2022-09-18T23:04:04.672Z,8.04
2022-09-18T23:06:33.532Z,8.06
2022-09-18T23:09:01.087Z,7.99
2022-09-18T23:11:30.475Z,8.05
2022-09-18T23:14:03.161Z,7.90
2022-09-18T23:16:31.682Z,7.65
2022-09-18T23:19:01.544Z,7.88
2022-09-18T23:21:31.619Z,7.87
2022-09-18T23:24:00.684Z,7.92
2022-09-18T23:26:30.044Z,7.88
2022-09-18T23:28:58.498Z,7.81
2022-09-18T23:31:26.773Z,7.81
2022-09-18T23:33:56.078Z,7.80
2022-09-18T23:36:24.824Z,7.90
2022-09-18T23:38:59.965Z,7.75
2022-09-18T23:41:29.713Z,7.64
2022-09-18T23:43:56.906Z,7.68
2022-09-18T23:46:24.245Z,7.71
2022-09-18T23:48:55.113Z,7.73
2022-09-18T23:51:27.788Z,7.67
2022-09-18T23:54:00.228Z,7.64
2022-09-18T23:56:29.214Z,7.28
2022-09-18T23:59:01.248Z,7.41
